CheckWX is a tool to help pilots better visualize weather data.  It is not intended as a substitute for an official pre-flight weather briefing.

03:19:39 UTC

HKMO METAR
Mombasa Moi International Airport
Mombasa, Kenya
Current

1 hour ago

HKMO 270200Z 23005KT 9999 FEW019 SCT080 24/24 Q1012 NOSIG
Observed
May-27 @ 02:00 UTC
Wind
  • 230° at 5 KTS
Visibility
10,000+ meters
Flight Rules
VFR
Cloud Levels
  • Few at 1,900' AGL
  • Scattered at 8,000' AGL
Temperature
24°C / 75°F
Dewpoint
24°C / 75°F
Humidity
100%
Altimeter
29.88" Hg
Pressure
1011.92 hPa
Previous

2 hours ago

HKMO 270100Z 24003KT 9999 FEW020 24/23 Q1012 NOSIG
Observed
May-27 @ 01:00 UTC
Wind
  • 240° at 3 KTS
Visibility
10,000+ meters
Flight Rules
VFR
Cloud Levels
  • Few at 2,000' AGL
Temperature
24°C / 75°F
Dewpoint
23°C / 73°F
Humidity
94%
Altimeter
29.88" Hg
Pressure
1011.92 hPa
Previous

3 hours ago

HKMO 270000Z 22003KT 9999 SCT020 BKN080 24/23 Q1012 NOSIG
Observed
May-27 @ 00:00 UTC
Wind
  • 220° at 3 KTS
Visibility
10,000+ meters
Flight Rules
VFR
Cloud Levels
  • Scattered at 2,000' AGL
  • Broken at 8,000' AGL
Temperature
24°C / 75°F
Dewpoint
23°C / 73°F
Humidity
94%
Altimeter
29.88" Hg
Pressure
1011.92 hPa